sensor_id;sensor_type;location;lat;lon;timestamp;pressure;altitude;pressure_sealevel;temperature;humidity
61710;BME280;47633;51.494;5.386;2023-06-26T00:01:17;101198.31;;;25.62;50.44
61710;BME280;47633;51.494;5.386;2023-06-26T00:03:42;101209.66;;;25.64;50.63
61710;BME280;47633;51.494;5.386;2023-06-26T00:06:07;101201.81;;;25.62;50.54
61710;BME280;47633;51.494;5.386;2023-06-26T00:08:32;101199.13;;;25.62;50.75
61710;BME280;47633;51.494;5.386;2023-06-26T00:10:58;101194.81;;;25.61;50.46
61710;BME280;47633;51.494;5.386;2023-06-26T00:13:24;101195.66;;;25.62;50.75
61710;BME280;47633;51.494;5.386;2023-06-26T00:15:50;101194.66;;;25.63;50.44
61710;BME280;47633;51.494;5.386;2023-06-26T00:18:15;101188.47;;;25.62;50.38
61710;BME280;47633;51.494;5.386;2023-06-26T00:20:41;101191.13;;;25.62;50.84
61710;BME280;47633;51.494;5.386;2023-06-26T00:23:06;101189.47;;;25.61;50.63
61710;BME280;47633;51.494;5.386;2023-06-26T00:25:33;101186.97;;;25.60;50.74
61710;BME280;47633;51.494;5.386;2023-06-26T00:27:58;101195.66;;;25.62;50.44
61710;BME280;47633;51.494;5.386;2023-06-26T00:30:24;101189.66;;;25.60;50.40
61710;BME280;47633;51.494;5.386;2023-06-26T00:32:49;101197.50;;;25.61;50.77
61710;BME280;47633;51.494;5.386;2023-06-26T00:35:15;101193.16;;;25.60;50.52
61710;BME280;47633;51.494;5.386;2023-06-26T00:37:41;101190.47;;;25.60;50.53
61710;BME280;47633;51.494;5.386;2023-06-26T00:40:06;101190.47;;;25.60;50.40
61710;BME280;47633;51.494;5.386;2023-06-26T00:42:32;101183.47;;;25.59;50.60
61710;BME280;47633;51.494;5.386;2023-06-26T00:44:57;101186.13;;;25.59;50.62
61710;BME280;47633;51.494;5.386;2023-06-26T00:47:23;101196.81;;;25.59;50.63
61710;BME280;47633;51.494;5.386;2023-06-26T00:49:49;101196.13;;;25.57;50.28
61710;BME280;47633;51.494;5.386;2023-06-26T00:52:15;101195.16;;;25.58;50.25
61710;BME280;47633;51.494;5.386;2023-06-26T00:54:42;101195.16;;;25.58;50.47
61710;BME280;47633;51.494;5.386;2023-06-26T00:57:07;101196.97;;;25.58;50.61
61710;BME280;47633;51.494;5.386;2023-06-26T00:59:34;101203.16;;;25.58;50.50
61710;BME280;47633;51.494;5.386;2023-06-26T01:01:59;101204.97;;;25.58;50.59
61710;BME280;47633;51.494;5.386;2023-06-26T01:04:24;101208.66;;;25.57;50.26
61710;BME280;47633;51.494;5.386;2023-06-26T01:06:52;101208.66;;;25.57;50.08
61710;BME280;47633;51.494;5.386;2023-06-26T01:09:19;101198.97;;;25.56;50.28
61710;BME280;47633;51.494;5.386;2023-06-26T01:11:45;101214.81;;;25.57;50.50
61710;BME280;47633;51.494;5.386;2023-06-26T01:14:11;101212.16;;;25.57;50.25
61710;BME280;47633;51.494;5.386;2023-06-26T01:16:38;101217.66;;;25.56;50.30
61710;BME280;47633;51.494;5.386;2023-06-26T01:19:10;101208.13;;;25.53;49.98
61710;BME280;47633;51.494;5.386;2023-06-26T01:21:39;101209.16;;;25.52;49.88
61710;BME280;47633;51.494;5.386;2023-06-26T01:24:16;101214.31;;;25.53;50.31
61710;BME280;47633;51.494;5.386;2023-06-26T01:26:46;101226.47;;;25.56;49.83
61710;BME280;47633;51.494;5.386;2023-06-26T01:29:14;101223.16;;;25.54;50.08
61710;BME280;47633;51.494;5.386;2023-06-26T01:31:40;101223.97;;;25.55;49.92
61710;BME280;47633;51.494;5.386;2023-06-26T01:34:07;101232.84;;;25.55;49.92
61710;BME280;47633;51.494;5.386;2023-06-26T01:36:32;101221.31;;;25.55;49.80
61710;BME280;47633;51.494;5.386;2023-06-26T01:38:57;101223.16;;;25.54;50.15
61710;BME280;47633;51.494;5.386;2023-06-26T01:41:23;101228.50;;;25.54;49.78
61710;BME280;47633;51.494;5.386;2023-06-26T01:44:01;101228.81;;;25.51;50.18
61710;BME280;47633;51.494;5.386;2023-06-26T01:46:56;101230.34;;;25.53;49.92
61710;BME280;47633;51.494;5.386;2023-06-26T01:49:56;101229.47;;;25.53;49.55
61710;BME280;47633;51.494;5.386;2023-06-26T01:58:01;101257.03;;;25.53;49.89
61710;BME280;47633;51.494;5.386;2023-06-26T02:00:27;101258.00;;;25.52;49.84
61710;BME280;47633;51.494;5.386;2023-06-26T02:02:53;101251.16;;;25.50;49.66
61710;BME280;47633;51.494;5.386;2023-06-26T02:05:19;101261.81;;;25.50;49.51
61710;BME280;47633;51.494;5.386;2023-06-26T02:07:44;101262.69;;;25.50;49.31
61710;BME280;47633;51.494;5.386;2023-06-26T02:10:10;101259.16;;;25.50;49.50
61710;BME280;47633;51.494;5.386;2023-06-26T02:12:36;101257.34;;;25.50;49.76
61710;BME280;47633;51.494;5.386;2023-06-26T02:15:02;101257.34;;;25.50;49.46
61710;BME280;47633;51.494;5.386;2023-06-26T02:17:28;101256.50;;;25.50;49.50
61710;BME280;47633;51.494;5.386;2023-06-26T02:19:53;101257.34;;;25.50;49.42
61710;BME280;47633;51.494;5.386;2023-06-26T02:22:18;101249.66;;;25.47;49.61
61710;BME280;47633;51.494;5.386;2023-06-26T02:24:43;101263.66;;;25.49;49.29
61710;BME280;47633;51.494;5.386;2023-06-26T02:27:09;101257.50;;;25.49;49.32
61710;BME280;47633;51.494;5.386;2023-06-26T02:29:34;101255.81;;;25.48;49.56
61710;BME280;47633;51.494;5.386;2023-06-26T02:32:00;101261.16;;;25.48;49.33
61710;BME280;47633;51.494;5.386;2023-06-26T02:34:25;101263.81;;;25.48;49.42
61710;BME280;47633;51.494;5.386;2023-06-26T02:36:50;101258.66;;;25.46;49.40
61710;BME280;47633;51.494;5.386;2023-06-26T02:39:15;101265.50;;;25.49;49.35
61710;BME280;47633;51.494;5.386;2023-06-26T02:41:41;101273.50;;;25.49;48.87
61710;BME280;47633;51.494;5.386;2023-06-26T02:44:06;101264.84;;;25.47;49.36
61710;BME280;47633;51.494;5.386;2023-06-26T02:46:32;101265.00;;;25.45;48.95
61710;BME280;47633;51.494;5.386;2023-06-26T02:48:58;101272.84;;;25.47;49.00
61710;BME280;47633;51.494;5.386;2023-06-26T02:51:23;101277.34;;;25.46;49.17
61710;BME280;47633;51.494;5.386;2023-06-26T02:53:49;101287.19;;;25.46;48.77
61710;BME280;47633;51.494;5.386;2023-06-26T02:56:14;101288.84;;;25.47;49.08
61710;BME280;47633;51.494;5.386;2023-06-26T02:58:39;101291.53;;;25.47;48.55
61710;BME280;47633;51.494;5.386;2023-06-26T03:01:04;101290.00;;;25.44;48.81
61710;BME280;47633;51.494;5.386;2023-06-26T03:03:30;101287.34;;;25.44;48.79
61710;BME280;47633;51.494;5.386;2023-06-26T03:05:55;101300.53;;;25.46;48.75
61710;BME280;47633;51.494;5.386;2023-06-26T03:08:20;101305.03;;;25.45;48.76
61710;BME280;47633;51.494;5.386;2023-06-26T03:10:46;101295.50;;;25.43;48.37
61710;BME280;47633;51.494;5.386;2023-06-26T03:13:11;101291.84;;;25.44;48.63
61710;BME280;47633;51.494;5.386;2023-06-26T03:15:36;101298.00;;;25.44;48.61
61710;BME280;47633;51.494;5.386;2023-06-26T03:18:02;101300.84;;;25.43;48.18
61710;BME280;47633;51.494;5.386;2023-06-26T03:20:27;101299.84;;;25.44;48.27
61710;BME280;47633;51.494;5.386;2023-06-26T03:22:52;101295.50;;;25.43;48.34
61710;BME280;47633;51.494;5.386;2023-06-26T03:25:18;101297.34;;;25.42;48.60
61710;BME280;47633;51.494;5.386;2023-06-26T03:27:44;101298.19;;;25.43;48.39
61710;BME280;47633;51.494;5.386;2023-06-26T03:30:10;101302.69;;;25.42;48.21
61710;BME280;47633;51.494;5.386;2023-06-26T03:32:37;101300.19;;;25.41;48.53
61710;BME280;47633;51.494;5.386;2023-06-26T03:35:02;101296.66;;;25.40;48.54
61710;BME280;47633;51.494;5.386;2023-06-26T03:37:28;101293.16;;;25.40;48.45
61710;BME280;47633;51.494;5.386;2023-06-26T03:39:53;101297.50;;;25.41;48.26
61710;BME280;47633;51.494;5.386;2023-06-26T03:42:19;101296.50;;;25.42;48.54
61710;BME280;47633;51.494;5.386;2023-06-26T03:44:44;101301.81;;;25.42;48.45
61710;BME280;47633;51.494;5.386;2023-06-26T03:47:09;101291.63;;;25.37;48.71
61710;BME280;47633;51.494;5.386;2023-06-26T03:49:35;101298.34;;;25.41;48.46
61710;BME280;47633;51.494;5.386;2023-06-26T03:52:00;101302.84;;;25.41;48.57
61710;BME280;47633;51.494;5.386;2023-06-26T03:54:25;101305.69;;;25.39;48.35
61710;BME280;47633;51.494;5.386;2023-06-26T03:56:51;101318.00;;;25.40;48.37
61710;BME280;47633;51.494;5.386;2023-06-26T03:59:16;101316.19;;;25.41;48.48
61710;BME280;47633;51.494;5.386;2023-06-26T04:01:41;101312.66;;;25.40;48.58
61710;BME280;47633;51.494;5.386;2023-06-26T04:04:07;101315.50;;;25.39;48.55
61710;BME280;47633;51.494;5.386;2023-06-26T04:06:32;101327.19;;;25.38;48.13
61710;BME280;47633;51.494;5.386;2023-06-26T04:08:58;101326.16;;;25.39;48.41
61710;BME280;47633;51.494;5.386;2023-06-26T04:11:24;101328.00;;;25.38;48.59
61710;BME280;47633;51.494;5.386;2023-06-26T04:13:50;101346.69;;;25.38;48.75
61710;BME280;47633;51.494;5.386;2023-06-26T04:16:15;101346.69;;;25.38;48.41
61710;BME280;47633;51.494;5.386;2023-06-26T04:18:41;101349.34;;;25.38;48.28
61710;BME280;47633;51.494;5.386;2023-06-26T04:21:08;101352.19;;;25.37;48.31
61710;BME280;47633;51.494;5.386;2023-06-26T04:23:33;101351.19;;;25.38;48.39
61710;BME280;47633;51.494;5.386;2023-06-26T04:25:59;101353.84;;;25.38;48.68
61710;BME280;47633;51.494;5.386;2023-06-26T04:28:25;101347.00;;;25.35;48.47
61710;BME280;47633;51.494;5.386;2023-06-26T04:30:50;101355.66;;;25.37;48.43
61710;BME280;47633;51.494;5.386;2023-06-26T04:33:16;101356.69;;;25.36;48.40
61710;BME280;47633;51.494;5.386;2023-06-26T04:35:41;101357.34;;;25.38;48.64
61710;BME280;47633;51.494;5.386;2023-06-26T04:38:10;101358.34;;;25.37;48.85
61710;BME280;47633;51.494;5.386;2023-06-26T04:40:35;101360.19;;;25.37;48.87
61710;BME280;47633;51.494;5.386;2023-06-26T04:43:00;101357.50;;;25.37;48.79
61710;BME280;47633;51.494;5.386;2023-06-26T04:45:26;101369.00;;;25.37;48.86
61710;BME280;47633;51.494;5.386;2023-06-26T04:47:51;101372.53;;;25.38;48.85
61710;BME280;47633;51.494;5.386;2023-06-26T04:50:16;101377.00;;;25.37;48.56
61710;BME280;47633;51.494;5.386;2023-06-26T04:52:43;101379.00;;;25.35;48.62
61710;BME280;47633;51.494;5.386;2023-06-26T04:55:09;101377.00;;;25.37;48.73
61710;BME280;47633;51.494;5.386;2023-06-26T04:57:34;101381.53;;;25.37;48.92
61710;BME280;47633;51.494;5.386;2023-06-26T04:59:59;101379.69;;;25.37;48.90
61710;BME280;47633;51.494;5.386;2023-06-26T05:02:24;101374.50;;;25.35;48.78
61710;BME280;47633;51.494;5.386;2023-06-26T05:04:51;101385.00;;;25.37;48.81
61710;BME280;47633;51.494;5.386;2023-06-26T05:07:17;101387.84;;;25.35;48.65
61710;BME280;47633;51.494;5.386;2023-06-26T05:09:42;101393.03;;;25.37;48.61
61710;BME280;47633;51.494;5.386;2023-06-26T05:12:07;101394.84;;;25.37;49.07
61710;BME280;47633;51.494;5.386;2023-06-26T05:14:33;101390.34;;;25.37;49.08
61710;BME280;47633;51.494;5.386;2023-06-26T05:16:58;101402.88;;;25.37;49.07
61710;BME280;47633;51.494;5.386;2023-06-26T05:19:23;101393.19;;;25.35;48.93
61710;BME280;47633;51.494;5.386;2023-06-26T05:21:50;101401.19;;;25.35;48.75
61710;BME280;47633;51.494;5.386;2023-06-26T05:24:16;101400.34;;;25.35;48.86
61710;BME280;47633;51.494;5.386;2023-06-26T05:26:42;101401.19;;;25.35;49.21
61710;BME280;47633;51.494;5.386;2023-06-26T05:29:08;101409.19;;;25.35;48.78
61710;BME280;47633;51.494;5.386;2023-06-26T05:31:34;101412.00;;;25.34;49.01
61710;BME280;47633;51.494;5.386;2023-06-26T05:34:05;101405.53;;;25.37;48.99
61710;BME280;47633;51.494;5.386;2023-06-26T05:36:31;101410.19;;;25.34;49.11
61710;BME280;47633;51.494;5.386;2023-06-26T05:38:59;101419.03;;;25.35;48.74
61710;BME280;47633;51.494;5.386;2023-06-26T05:41:24;101413.53;;;25.37;48.79
61710;BME280;47633;51.494;5.386;2023-06-26T05:43:50;101419.84;;;25.35;48.88
61710;BME280;47633;51.494;5.386;2023-06-26T05:46:15;101425.19;;;25.35;48.62
61710;BME280;47633;51.494;5.386;2023-06-26T05:48:40;101422.53;;;25.35;49.02
61710;BME280;47633;51.494;5.386;2023-06-26T05:51:07;101428.00;;;25.34;48.89
61710;BME280;47633;51.494;5.386;2023-06-26T05:53:33;101436.88;;;25.34;49.06
61710;BME280;47633;51.494;5.386;2023-06-26T05:55:58;101431.69;;;25.33;48.99
61710;BME280;47633;51.494;5.386;2023-06-26T05:58:26;101431.47;;;25.26;48.45
61710;BME280;47633;51.494;5.386;2023-06-26T06:00:52;101439.56;;;25.16;48.60
61710;BME280;47633;51.494;5.386;2023-06-26T06:03:18;101448.38;;;25.09;49.00
61710;BME280;47633;51.494;5.386;2023-06-26T06:05:43;101450.13;;;25.00;49.21
61710;BME280;47633;51.494;5.386;2023-06-26T06:08:08;101457.75;;;24.95;48.75
61710;BME280;47633;51.494;5.386;2023-06-26T06:10:34;101454.88;;;24.88;49.02
61710;BME280;47633;51.494;5.386;2023-06-26T06:12:59;101455.78;;;24.79;49.22
61710;BME280;47633;51.494;5.386;2023-06-26T06:15:25;101454.50;;;24.65;49.40
61710;BME280;47633;51.494;5.386;2023-06-26T06:17:50;101462.56;;;24.55;49.59
61710;BME280;47633;51.494;5.386;2023-06-26T06:20:17;101466.56;;;24.41;50.40
61710;BME280;47633;51.494;5.386;2023-06-26T06:22:44;101473.28;;;24.27;50.40
61710;BME280;47633;51.494;5.386;2023-06-26T06:25:10;101479.28;;;24.12;50.60
61710;BME280;47633;51.494;5.386;2023-06-26T06:27:35;101475.28;;;23.98;50.55
61710;BME280;47633;51.494;5.386;2023-06-26T06:30:00;101470.00;;;23.88;50.93
61710;BME280;47633;51.494;5.386;2023-06-26T06:32:25;101473.22;;;23.82;51.43
61710;BME280;47633;51.494;5.386;2023-06-26T06:34:51;101467.50;;;23.77;51.13
61710;BME280;47633;51.494;5.386;2023-06-26T06:37:16;101465.97;;;23.74;50.79
61710;BME280;47633;51.494;5.386;2023-06-26T06:39:41;101486.44;;;23.73;50.83
61710;BME280;47633;51.494;5.386;2023-06-26T06:42:07;101477.88;;;23.70;50.60
61710;BME280;47633;51.494;5.386;2023-06-26T06:44:33;101487.53;;;23.71;51.07
61710;BME280;47633;51.494;5.386;2023-06-26T06:46:58;101496.50;;;23.70;51.21
61710;BME280;47633;51.494;5.386;2023-06-26T06:49:24;101500.28;;;23.77;51.17
61710;BME280;47633;51.494;5.386;2023-06-26T06:51:49;101500.25;;;23.87;50.86
61710;BME280;47633;51.494;5.386;2023-06-26T06:54:16;101503.84;;;23.96;50.62
61710;BME280;47633;51.494;5.386;2023-06-26T06:56:41;101500.31;;;24.05;50.19
61710;BME280;47633;51.494;5.386;2023-06-26T06:59:07;101502.66;;;24.08;50.22
61710;BME280;47633;51.494;5.386;2023-06-26T07:01:32;101509.28;;;24.04;49.93
61710;BME280;47633;51.494;5.386;2023-06-26T07:03:57;101527.06;;;24.03;50.57
61710;BME280;47633;51.494;5.386;2023-06-26T07:06:23;101532.00;;;23.98;50.44
61710;BME280;47633;51.494;5.386;2023-06-26T07:08:48;101527.25;;;23.92;50.79
61710;BME280;47633;51.494;5.386;2023-06-26T07:11:13;101534.84;;;23.87;50.85
61710;BME280;47633;51.494;5.386;2023-06-26T07:13:38;101544.81;;;23.85;51.48
61710;BME280;47633;51.494;5.386;2023-06-26T07:16:04;101530.22;;;23.79;51.08
61710;BME280;47633;51.494;5.386;2023-06-26T07:18:29;101540.47;;;23.74;50.82
61710;BME280;47633;51.494;5.386;2023-06-26T07:20:54;101542.31;;;23.73;51.23
61710;BME280;47633;51.494;5.386;2023-06-26T07:23:20;101548.22;;;23.67;51.51
61710;BME280;47633;51.494;5.386;2023-06-26T07:25:45;101556.34;;;23.66;51.97
61710;BME280;47633;51.494;5.386;2023-06-26T07:28:11;101552.81;;;23.65;52.16
61710;BME280;47633;51.494;5.386;2023-06-26T07:30:36;101560.25;;;23.62;51.98
61710;BME280;47633;51.494;5.386;2023-06-26T07:33:02;101556.91;;;23.60;51.22
61710;BME280;47633;51.494;5.386;2023-06-26T07:35:27;101555.06;;;23.60;51.50
61710;BME280;47633;51.494;5.386;2023-06-26T07:37:53;101569.53;;;23.58;51.26
61710;BME280;47633;51.494;5.386;2023-06-26T07:40:18;101565.72;;;23.60;51.62
61710;BME280;47633;51.494;5.386;2023-06-26T07:42:43;101577.75;;;23.64;51.81
61710;BME280;47633;51.494;5.386;2023-06-26T07:45:09;101579.00;;;23.70;51.34
61710;BME280;47633;51.494;5.386;2023-06-26T07:47:38;101575.75;;;23.76;51.40
61710;BME280;47633;51.494;5.386;2023-06-26T07:50:03;101579.13;;;23.88;50.66
61710;BME280;47633;51.494;5.386;2023-06-26T07:52:29;101573.53;;;23.91;50.77
61710;BME280;47633;51.494;5.386;2023-06-26T07:54:58;101576.88;;;23.93;49.80
61710;BME280;47633;51.494;5.386;2023-06-26T07:57:24;101597.72;;;23.98;49.32
61710;BME280;47633;51.494;5.386;2023-06-26T07:59:50;101592.94;;;24.01;49.20
61710;BME280;47633;51.494;5.386;2023-06-26T08:02:15;101589.84;;;24.06;48.69
61710;BME280;47633;51.494;5.386;2023-06-26T08:04:41;101597.41;;;24.11;48.65
61710;BME280;47633;51.494;5.386;2023-06-26T08:07:06;101602.44;;;24.14;48.42
61710;BME280;47633;51.494;5.386;2023-06-26T08:09:32;101598.63;;;24.16;48.10
61710;BME280;47633;51.494;5.386;2023-06-26T08:11:58;101599.63;;;24.15;47.92
61710;BME280;47633;51.494;5.386;2023-06-26T08:14:24;101608.31;;;24.17;47.65
61710;BME280;47633;51.494;5.386;2023-06-26T08:16:50;101618.94;;;24.17;46.59
61710;BME280;47633;51.494;5.386;2023-06-26T08:19:16;101607.47;;;24.17;45.59
61710;BME280;47633;51.494;5.386;2023-06-26T08:21:42;101609.28;;;24.16;44.71
61710;BME280;47633;51.494;5.386;2023-06-26T08:24:08;101609.41;;;24.15;44.99
61710;BME280;47633;51.494;5.386;2023-06-26T08:26:34;101611.78;;;24.18;45.13
61710;BME280;47633;51.494;5.386;2023-06-26T08:29:00;101612.66;;;24.18;44.65
61710;BME280;47633;51.494;5.386;2023-06-26T08:31:25;101615.31;;;24.18;44.77
61710;BME280;47633;51.494;5.386;2023-06-26T08:33:50;101619.78;;;24.18;44.96
61710;BME280;47633;51.494;5.386;2023-06-26T08:36:16;101618.66;;;24.20;45.37
61710;BME280;47633;51.494;5.386;2023-06-26T08:38:41;101607.03;;;24.21;44.93
61710;BME280;47633;51.494;5.386;2023-06-26T08:41:07;101607.88;;;24.22;44.44
61710;BME280;47633;51.494;5.386;2023-06-26T08:43:32;101614.88;;;24.23;45.23
61710;BME280;47633;51.494;5.386;2023-06-26T08:45:59;101614.72;;;24.24;45.29
61710;BME280;47633;51.494;5.386;2023-06-26T08:48:24;101627.75;;;24.27;45.38
61710;BME280;47633;51.494;5.386;2023-06-26T08:50:52;101628.72;;;24.26;44.73
61710;BME280;47633;51.494;5.386;2023-06-26T08:55:52;101627.84;;;24.36;45.51
61710;BME280;47633;51.494;5.386;2023-06-26T08:58:18;101634.41;;;24.41;45.38
61710;BME280;47633;51.494;5.386;2023-06-26T09:00:44;101635.25;;;24.42;44.35
61710;BME280;47633;51.494;5.386;2023-06-26T09:03:09;101641.41;;;24.42;43.51
61710;BME280;47633;51.494;5.386;2023-06-26T09:05:35;101639.28;;;24.46;43.41
61710;BME280;47633;51.494;5.386;2023-06-26T09:08:01;101638.31;;;24.47;42.47
61710;BME280;47633;51.494;5.386;2023-06-26T09:10:26;101643.66;;;24.47;42.86
61710;BME280;47633;51.494;5.386;2023-06-26T09:12:55;101644.47;;;24.48;43.26
61710;BME280;47633;51.494;5.386;2023-06-26T09:15:22;101637.72;;;24.53;43.72
61710;BME280;47633;51.494;5.386;2023-06-26T09:17:48;101649.06;;;24.55;43.61
61710;BME280;47633;51.494;5.386;2023-06-26T09:20:13;101654.41;;;24.55;43.65
61710;BME280;47633;51.494;5.386;2023-06-26T09:22:43;101657.78;;;24.57;43.56
61710;BME280;47633;51.494;5.386;2023-06-26T09:25:12;101647.13;;;24.57;42.71
61710;BME280;47633;51.494;5.386;2023-06-26T09:27:37;101652.44;;;24.57;41.91
61710;BME280;47633;51.494;5.386;2023-06-26T09:30:03;101651.19;;;24.61;41.87
61710;BME280;47633;51.494;5.386;2023-06-26T09:32:29;101651.84;;;24.63;42.32
61710;BME280;47633;51.494;5.386;2023-06-26T09:34:54;101662.06;;;24.68;42.43
61710;BME280;47633;51.494;5.386;2023-06-26T09:37:25;101667.13;;;24.71;41.87
61710;BME280;47633;51.494;5.386;2023-06-26T09:39:51;101669.63;;;24.73;42.03
61710;BME280;47633;51.494;5.386;2023-06-26T09:42:17;101674.66;;;24.76;42.21
61710;BME280;47633;51.494;5.386;2023-06-26T09:44:46;101673.69;;;24.77;41.92
61710;BME280;47633;51.494;5.386;2023-06-26T09:47:15;101680.69;;;24.78;41.85
61710;BME280;47633;51.494;5.386;2023-06-26T09:49:44;101684.34;;;24.77;41.54
61710;BME280;47633;51.494;5.386;2023-06-26T09:52:10;101692.88;;;24.80;41.23
61710;BME280;47633;51.494;5.386;2023-06-26T09:54:38;101692.72;;;24.82;41.25
61710;BME280;47633;51.494;5.386;2023-06-26T09:57:08;101685.56;;;24.83;41.51
61710;BME280;47633;51.494;5.386;2023-06-26T09:59:34;101686.25;;;24.85;41.05
61710;BME280;47633;51.494;5.386;2023-06-26T10:01:59;101680.75;;;24.86;40.75
61710;BME280;47633;51.494;5.386;2023-06-26T10:04:25;101679.19;;;24.93;41.02
61710;BME280;47633;51.494;5.386;2023-06-26T10:06:51;101694.06;;;24.96;41.39
61710;BME280;47633;51.494;5.386;2023-06-26T10:09:20;101688.56;;;24.97;42.14
61710;BME280;47633;51.494;5.386;2023-06-26T10:11:51;101703.44;;;25.00;42.36
61710;BME280;47633;51.494;5.386;2023-06-26T10:14:21;101700.59;;;25.02;42.32
61710;BME280;47633;51.494;5.386;2023-06-26T10:16:48;101698.63;;;25.04;42.47
61710;BME280;47633;51.494;5.386;2023-06-26T10:19:16;101700.00;;;25.08;42.14
61710;BME280;47633;51.494;5.386;2023-06-26T10:21:44;101695.22;;;25.11;42.35
61710;BME280;47633;51.494;5.386;2023-06-26T10:24:10;101702.09;;;25.14;41.89
61710;BME280;47633;51.494;5.386;2023-06-26T10:26:39;101702.91;;;25.14;41.80
61710;BME280;47633;51.494;5.386;2023-06-26T10:29:06;101711.59;;;25.16;41.93
61710;BME280;47633;51.494;5.386;2023-06-26T10:31:32;101700.63;;;25.20;42.49
61710;BME280;47633;51.494;5.386;2023-06-26T10:33:59;101702.31;;;25.21;42.42
61710;BME280;47633;51.494;5.386;2023-06-26T10:36:30;101715.50;;;25.22;42.12
61710;BME280;47633;51.494;5.386;2023-06-26T10:38:59;101711.84;;;25.23;42.12
61710;BME280;47633;51.494;5.386;2023-06-26T10:41:36;101721.34;;;25.26;41.94
61710;BME280;47633;51.494;5.386;2023-06-26T10:46:28;101725.44;;;25.30;42.09
61710;BME280;47633;51.494;5.386;2023-06-26T10:49:01;101734.13;;;25.32;41.90
61710;BME280;47633;51.494;5.386;2023-06-26T10:51:27;101734.66;;;25.35;41.63
61710;BME280;47633;51.494;5.386;2023-06-26T10:53:56;101729.31;;;25.35;41.63
61710;BME280;47633;51.494;5.386;2023-06-26T10:56:41;101726.66;;;25.35;42.20
61710;BME280;47633;51.494;5.386;2023-06-26T10:59:19;101717.66;;;25.37;42.26
61710;BME280;47633;51.494;5.386;2023-06-26T11:01:46;101722.41;;;25.43;42.46
61710;BME280;47633;51.494;5.386;2023-06-26T11:04:13;101732.25;;;25.42;42.22
61710;BME280;47633;51.494;5.386;2023-06-26T11:06:41;101743.31;;;25.47;41.98
61710;BME280;47633;51.494;5.386;2023-06-26T11:09:11;101747.09;;;25.45;41.73
61710;BME280;47633;51.494;5.386;2023-06-26T11:14:18;101746.78;;;25.48;42.00
61710;BME280;47633;51.494;5.386;2023-06-26T11:16:44;101745.66;;;25.50;42.32
61710;BME280;47633;51.494;5.386;2023-06-26T11:19:10;101746.50;;;25.51;41.61
61710;BME280;47633;51.494;5.386;2023-06-26T11:21:37;101754.66;;;25.49;42.58
61710;BME280;47633;51.494;5.386;2023-06-26T11:24:04;101759.84;;;25.51;42.59
61710;BME280;47633;51.494;5.386;2023-06-26T11:26:31;101751.97;;;25.49;42.52
61710;BME280;47633;51.494;5.386;2023-06-26T11:29:02;101750.69;;;25.53;42.53
61710;BME280;47633;51.494;5.386;2023-06-26T11:31:29;101752.50;;;25.53;42.71
61710;BME280;47633;51.494;5.386;2023-06-26T11:33:56;101756.72;;;25.56;42.56
61710;BME280;47633;51.494;5.386;2023-06-26T11:36:25;101749.84;;;25.53;42.13
61710;BME280;47633;51.494;5.386;2023-06-26T11:38:58;101766.56;;;25.55;41.53
61710;BME280;47633;51.494;5.386;2023-06-26T11:41:26;101763.88;;;25.55;41.90
61710;BME280;47633;51.494;5.386;2023-06-26T11:43:52;101774.78;;;25.62;41.64
61710;BME280;47633;51.494;5.386;2023-06-26T11:46:19;101779.75;;;25.57;41.99
61710;BME280;47633;51.494;5.386;2023-06-26T11:48:44;101781.25;;;25.59;42.15
61710;BME280;47633;51.494;5.386;2023-06-26T11:51:12;101782.94;;;25.60;42.26
61710;BME280;47633;51.494;5.386;2023-06-26T11:53:40;101793.47;;;25.62;42.04
61710;BME280;47633;51.494;5.386;2023-06-26T11:56:11;101799.78;;;25.61;41.64
61710;BME280;47633;51.494;5.386;2023-06-26T12:01:30;101803.84;;;25.65;42.21
61710;BME280;47633;51.494;5.386;2023-06-26T12:03:59;101802.84;;;25.66;41.76
61710;BME280;47633;51.494;5.386;2023-06-26T12:06:25;101794.53;;;25.69;41.96
61710;BME280;47633;51.494;5.386;2023-06-26T12:08:51;101791.50;;;25.64;41.44
61710;BME280;47633;51.494;5.386;2023-06-26T12:11:16;101814.22;;;25.68;41.86
61710;BME280;47633;51.494;5.386;2023-06-26T12:13:42;101806.75;;;25.71;41.61
61710;BME280;47633;51.494;5.386;2023-06-26T12:16:08;101808.44;;;25.73;41.79
61710;BME280;47633;51.494;5.386;2023-06-26T12:18:36;101803.56;;;25.68;41.78
61710;BME280;47633;51.494;5.386;2023-06-26T12:21:02;101809.56;;;25.70;41.76
61710;BME280;47633;51.494;5.386;2023-06-26T12:23:38;101818.72;;;25.67;40.78
61710;BME280;47633;51.494;5.386;2023-06-26T12:26:20;101804.53;;;25.67;41.00
61710;BME280;47633;51.494;5.386;2023-06-26T12:28:46;101813.38;;;25.67;41.29
61710;BME280;47633;51.494;5.386;2023-06-26T12:31:13;101816.38;;;25.64;41.60
61710;BME280;47633;51.494;5.386;2023-06-26T12:33:39;101812.00;;;25.63;41.98
61710;BME280;47633;51.494;5.386;2023-06-26T12:36:04;101807.50;;;25.64;42.07
61710;BME280;47633;51.494;5.386;2023-06-26T12:38:33;101818.31;;;25.62;41.14
61710;BME280;47633;51.494;5.386;2023-06-26T12:40:58;101824.53;;;25.63;41.46
61710;BME280;47633;51.494;5.386;2023-06-26T12:43:25;101819.34;;;25.61;41.21
61710;BME280;47633;51.494;5.386;2023-06-26T12:45:57;101814.97;;;25.60;40.86
61710;BME280;47633;51.494;5.386;2023-06-26T12:48:43;101798.81;;;25.62;40.88
61710;BME280;47633;51.494;5.386;2023-06-26T12:51:13;101821.16;;;25.61;41.17
61710;BME280;47633;51.494;5.386;2023-06-26T12:53:39;101818.31;;;25.62;41.05
61710;BME280;47633;51.494;5.386;2023-06-26T12:56:05;101816.66;;;25.61;41.40
61710;BME280;47633;51.494;5.386;2023-06-26T12:58:32;101818.47;;;25.61;41.54
61710;BME280;47633;51.494;5.386;2023-06-26T13:00:57;101818.78;;;25.58;41.08
61710;BME280;47633;51.494;5.386;2023-06-26T13:03:22;101824.81;;;25.60;41.50